Time;durP1;ratioP1;P1;durP2;ratioP2;P2;SDS_P1;SDS_P2;PMS_P1;PMS_P2;Temp;Humidity;BMP_temperature;BMP_pressure;BME280_temperature;BME280_humidity;BME280_pressure;Samples;Min_cycle;Max_cycle;Signal;HPM_P1;HPM_P2
2022/02/06 00:00:59;;;;;;;0.22;0.20;;;19.10;41.40;;;;;;5087291;28;20052;-51
2022/02/06 00:03:27;;;;;;;2.88;0.57;;;19.10;41.40;;;;;;5086807;28;20044;-50
2022/02/06 00:05:56;;;;;;;2.95;0.20;;;19.10;41.40;;;;;;5081667;28;20040;-51
2022/02/06 00:08:23;;;;;;;2.67;0.20;;;19.10;41.40;;;;;;5082247;28;20783;-49
2022/02/06 00:10:50;;;;;;;0.13;0.10;;;19.10;41.30;;;;;;5083813;28;20397;-52
2022/02/06 00:13:17;;;;;;;0.35;0.15;;;19.10;41.30;;;;;;5093625;28;20427;-52
2022/02/06 00:15:45;;;;;;;0.75;0.10;;;19.10;41.30;;;;;;5088457;28;20102;-46
2022/02/06 00:18:12;;;;;;;2.00;0.50;;;19.00;41.20;;;;;;5090413;28;20051;-50
2022/02/06 00:20:48;;;;;;;1.52;0.10;;;19.00;41.30;;;;;;5085249;28;20416;-52
2022/02/06 00:23:18;;;;;;;3.75;0.30;;;19.00;41.20;;;;;;5085024;28;20044;-49
2022/02/06 00:25:55;;;;;;;0.93;0.52;;;19.00;41.30;;;;;;5083553;28;20153;-46
2022/02/06 00:28:34;;;;;;;6.22;0.65;;;19.00;41.30;;;;;;5084346;28;20139;-48
2022/02/06 00:31:11;;;;;;;1.70;0.30;;;19.00;41.30;;;;;;5087708;28;20075;-48
2022/02/06 00:33:46;;;;;;;2.08;0.50;;;19.00;41.30;;;;;;5086917;28;20071;-51
2022/02/06 00:39:04;;;;;;;0.80;0.10;;;19.00;41.30;;;;;;5084977;28;20076;-53
2022/02/06 00:41:32;;;;;;;0.32;0.32;;;19.00;41.30;;;;;;5085722;28;20036;-52
2022/02/06 00:44:02;;;;;;;0.52;0.10;;;19.00;41.40;;;;;;5088593;28;20133;-51
2022/02/06 00:46:30;;;;;;;0.38;0.10;;;19.00;41.30;;;;;;5084926;28;20050;-50
2022/02/06 00:48:59;;;;;;;2.83;0.20;;;19.00;41.30;;;;;;5090834;28;20044;-49
2022/02/06 00:51:34;;;;;;;1.83;0.40;;;19.00;41.30;;;;;;5088921;28;20119;-48
2022/02/06 00:54:02;;;;;;;0.57;0.10;;;19.00;41.30;;;;;;5087177;28;20509;-50
2022/02/06 00:56:30;;;;;;;0.43;0.10;;;19.00;41.90;;;;;;5088807;28;20040;-50
2022/02/06 00:58:57;;;;;;;2.05;0.52;;;19.00;41.30;;;;;;5088755;28;20052;-46
2022/02/06 01:01:24;;;;;;;1.10;0.10;;;19.00;41.30;;;;;;5087303;28;20412;-49
2022/02/06 01:03:53;;;;;;;0.70;0.10;;;19.00;41.30;;;;;;5083994;28;20036;-52
2022/02/06 01:06:20;;;;;;;3.00;0.10;;;19.00;41.30;;;;;;5095150;28;20050;-50
2022/02/06 01:08:48;;;;;;;2.10;0.20;;;19.00;41.30;;;;;;5087182;28;20051;-53
2022/02/06 01:11:17;;;;;;;2.03;0.10;;;19.00;41.30;;;;;;5090459;28;20044;-47
2022/02/06 01:13:57;;;;;;;0.30;0.10;;;19.00;41.30;;;;;;5087872;28;20051;-52
2022/02/06 01:16:28;;;;;;;0.35;0.20;;;19.00;41.30;;;;;;5082847;28;20055;-51
2022/02/06 01:18:59;;;;;;;2.55;0.55;;;19.00;41.30;;;;;;5088670;28;20480;-48
2022/02/06 01:21:40;;;;;;;0.60;0.28;;;18.90;41.30;;;;;;5085523;28;20046;-49
2022/02/06 01:24:12;;;;;;;0.60;0.10;;;18.90;41.30;;;;;;5084129;28;20515;-49
2022/02/06 01:26:45;;;;;;;1.85;0.20;;;18.90;41.30;;;;;;5088000;28;20055;-48
2022/02/06 01:29:19;;;;;;;2.50;0.20;;;18.90;41.40;;;;;;5092332;28;20097;-50
2022/02/06 01:31:55;;;;;;;1.13;0.10;;;18.90;41.30;;;;;;5090397;28;20495;-50
2022/02/06 01:34:27;;;;;;;1.10;0.10;;;18.90;41.30;;;;;;5093852;28;20044;-50
2022/02/06 01:37:07;;;;;;;0.47;0.10;;;18.90;41.30;;;;;;5085865;28;20043;-48
2022/02/06 01:39:53;;;;;;;0.75;0.22;;;18.90;41.40;;;;;;5087272;28;20086;-48
2022/02/06 01:42:29;;;;;;;0.82;0.20;;;18.90;41.30;;;;;;5086362;28;20499;-49
2022/02/06 01:45:11;;;;;;;1.25;0.10;;;18.90;41.30;;;;;;5077739;28;20139;-46
2022/02/06 02:01:37;;;;;;;0.50;0.10;;;18.90;41.40;;;;;;5024546;28;20065;-48
2022/02/06 02:04:12;;;;;;;1.95;0.10;;;18.90;41.40;;;;;;5018270;28;20045;-49
2022/02/06 02:12:52;;;;;;;1.75;0.10;;;18.80;41.40;;;;;;4944581;28;20046;-47
2022/02/06 02:27:07;;;;;;;1.50;0.60;;;18.80;41.40;;;;;;5081838;27;20464;-51
2022/02/06 02:46:25;;;;;;;0.40;0.10;;;18.80;41.40;;;;;;4994520;28;20060;-47
2022/02/06 02:48:54;;;;;;;0.30;0.30;;;18.80;41.40;;;;;;4994541;28;20459;-52
2022/02/06 02:51:24;;;;;;;0.52;0.10;;;18.80;41.40;;;;;;4992110;28;20142;-51
2022/02/06 02:53:56;;;;;;;1.45;0.20;;;18.80;41.40;;;;;;5008670;28;20046;-46
2022/02/06 02:56:36;;;;;;;0.63;0.00;;;18.80;41.40;;;;;;4996061;28;20586;-44
2022/02/06 02:59:11;;;;;;;0.77;0.20;;;18.80;41.40;;;;;;5007987;28;20512;-44
2022/02/06 03:01:44;;;;;;;1.77;0.10;;;18.90;41.40;;;;;;5001083;28;20132;-47
2022/02/06 03:04:11;;;;;;;0.63;0.25;;;18.90;41.50;;;;;;4996429;28;20046;-44
2022/02/06 03:06:38;;;;;;;0.85;0.10;;;18.80;41.40;;;;;;5000587;28;20046;-44
2022/02/06 03:09:06;;;;;;;1.13;0.30;;;18.80;41.30;;;;;;4992381;28;20050;-48
2022/02/06 03:11:33;;;;;;;0.30;0.10;;;18.90;41.40;;;;;;4996271;28;20809;-46
2022/02/06 03:14:05;;;;;;;0.40;0.10;;;18.80;41.40;;;;;;4995948;28;20616;-48
2022/02/06 03:16:36;;;;;;;0.85;0.30;;;18.80;41.30;;;;;;4980546;28;20541;-48
2022/02/06 03:19:08;;;;;;;1.60;0.30;;;18.90;41.40;;;;;;4988135;28;20046;-52
2022/02/06 03:21:36;;;;;;;0.30;0.10;;;18.90;41.40;;;;;;5005447;28;20073;-46
2022/02/06 03:24:22;;;;;;;0.32;0.10;;;18.90;41.40;;;;;;5058726;28;20045;-47
2022/02/06 03:26:51;;;;;;;0.73;0.13;;;18.90;41.40;;;;;;5061570;28;20129;-46
2022/02/06 03:29:19;;;;;;;1.17;0.10;;;18.80;41.40;;;;;;5067552;28;20063;-44
2022/02/06 03:31:48;;;;;;;0.10;0.03;;;18.80;41.40;;;;;;5059277;28;20052;-45
2022/02/06 03:34:16;;;;;;;0.20;0.00;;;18.80;41.40;;;;;;5059688;28;20040;-47
2022/02/06 03:36:43;;;;;;;1.05;0.10;;;18.80;41.40;;;;;;5056284;28;20037;-46
2022/02/06 03:39:12;;;;;;;0.63;0.08;;;18.80;41.40;;;;;;5041848;28;20036;-45
2022/02/06 03:41:52;;;;;;;0.75;0.10;;;18.80;41.50;;;;;;5045042;28;20049;-45
2022/02/06 03:44:29;;;;;;;1.95;0.00;;;18.80;41.50;;;;;;5058303;28;20449;-49
2022/02/06 03:47:04;;;;;;;1.55;0.10;;;18.80;41.50;;;;;;5051252;28;20052;-51
2022/02/06 03:49:42;;;;;;;1.20;0.20;;;18.80;41.50;;;;;;5051725;28;20047;-49
2022/02/06 03:52:09;;;;;;;0.20;0.10;;;18.80;41.50;;;;;;5058239;28;20048;-50
2022/02/06 03:54:36;;;;;;;1.45;0.20;;;18.80;41.50;;;;;;5053310;28;20051;-49
2022/02/06 03:57:04;;;;;;;1.30;0.03;;;18.80;41.50;;;;;;5052211;28;20053;-48
2022/02/06 03:59:34;;;;;;;3.60;0.57;;;18.80;42.10;;;;;;5047773;28;20048;-47
2022/02/06 04:02:03;;;;;;;0.47;0.10;;;18.80;41.50;;;;;;5050015;28;20056;-46
2022/02/06 04:04:32;;;;;;;0.32;0.10;;;18.80;41.50;;;;;;5041276;28;20029;-46
2022/02/06 04:07:05;;;;;;;0.30;0.30;;;18.80;41.60;;;;;;5048883;28;20049;-48
2022/02/06 04:09:37;;;;;;;1.80;0.22;;;18.80;41.60;;;;;;5045802;28;20375;-51
2022/02/06 04:12:05;;;;;;;0.82;0.10;;;18.80;41.60;;;;;;5040909;28;20142;-46
2022/02/06 04:14:41;;;;;;;0.95;0.10;;;18.80;41.60;;;;;;5050343;28;20041;-50
2022/02/06 04:17:20;;;;;;;0.52;0.10;;;18.80;41.60;;;;;;5044550;28;20053;-50
2022/02/06 04:19:47;;;;;;;1.95;0.17;;;18.80;41.70;;;;;;5046863;28;20124;-48
2022/02/06 04:22:14;;;;;;;0.10;0.00;;;18.80;41.70;;;;;;5051418;28;20044;-46
2022/02/06 04:24:41;;;;;;;0.35;0.20;;;18.80;41.70;;;;;;5045776;28;20425;-50
2022/02/06 04:27:08;;;;;;;0.90;0.30;;;18.80;41.70;;;;;;5045572;28;20049;-45
2022/02/06 04:29:36;;;;;;;0.20;0.10;;;18.80;41.70;;;;;;5046555;28;20067;-47
2022/02/06 04:32:03;;;;;;;0.73;0.05;;;18.80;41.70;;;;;;5044139;28;20047;-48
2022/02/06 04:34:32;;;;;;;0.30;0.10;;;18.80;41.70;;;;;;5043318;28;20120;-46
2022/02/06 04:37:06;;;;;;;0.80;0.10;;;18.80;41.70;;;;;;5042059;28;20048;-49
2022/02/06 04:42:41;;;;;;;0.15;0.10;;;18.80;41.80;;;;;;5001091;28;20104;-46
2022/02/06 04:48:26;;;;;;;0.20;0.03;;;18.70;41.80;;;;;;5012627;28;20045;-49
2022/02/06 05:13:46;;;;;;;1.27;0.03;;;18.70;42.00;;;;;;4957714;28;20078;-45
2022/02/06 05:16:22;;;;;;;0.30;0.00;;;18.70;42.00;;;;;;4958340;28;20046;-45
2022/02/06 05:24:48;;;;;;;0.93;0.30;;;18.70;42.10;;;;;;5013296;28;20124;-50
2022/02/06 05:27:30;;;;;;;1.27;0.10;;;18.70;42.10;;;;;;5039467;28;20151;-50
2022/02/06 05:30:02;;;;;;;2.53;0.08;;;18.70;42.10;;;;;;5041316;28;20038;-48
2022/02/06 05:32:37;;;;;;;2.10;0.10;;;18.70;42.10;;;;;;5052994;28;20697;-51
2022/02/06 05:35:06;;;;;;;0.77;0.00;;;18.70;42.10;;;;;;5038107;28;20119;-50
2022/02/06 05:37:33;;;;;;;0.00;0.00;;;18.70;42.10;;;;;;5042609;28;20299;-45
2022/02/06 05:40:03;;;;;;;1.25;0.10;;;18.70;42.10;;;;;;5039306;28;20041;-51
2022/02/06 05:42:30;;;;;;;0.90;0.00;;;18.70;42.10;;;;;;5051111;28;20404;-48
2022/02/06 05:44:57;;;;;;;0.95;0.47;;;18.70;42.10;;;;;;5037484;28;20053;-45
2022/02/06 05:47:25;;;;;;;2.83;0.75;;;18.70;42.20;;;;;;5043259;28;20509;-53
2022/02/06 05:49:53;;;;;;;0.85;0.20;;;18.70;42.10;;;;;;5044082;28;20060;-49
2022/02/06 05:52:21;;;;;;;1.88;0.32;;;18.70;42.10;;;;;;5042098;28;20036;-52
2022/02/06 05:54:48;;;;;;;0.32;0.10;;;18.70;42.10;;;;;;5037564;28;20140;-51
2022/02/06 05:57:17;;;;;;;0.50;0.10;;;18.70;42.10;;;;;;5041138;28;20037;-49
2022/02/06 05:59:44;;;;;;;0.10;0.00;;;18.70;42.10;;;;;;5052094;28;20040;-49
2022/02/06 06:02:11;;;;;;;1.95;0.10;;;18.70;42.10;;;;;;5041716;28;20033;-52
2022/02/06 06:04:38;;;;;;;0.75;0.10;;;18.70;42.10;;;;;;5042093;28;20045;-49
2022/02/06 06:07:06;;;;;;;1.42;0.10;;;18.70;42.10;;;;;;5044923;28;20064;-54
2022/02/06 06:09:33;;;;;;;0.00;0.00;;;18.70;42.20;;;;;;5038042;28;20048;-50
2022/02/06 06:12:00;;;;;;;1.20;0.05;;;18.70;42.10;;;;;;5040486;28;20457;-49
2022/02/06 06:14:30;;;;;;;0.95;0.10;;;18.70;42.10;;;;;;5061609;28;20051;-48
2022/02/06 06:16:57;;;;;;;0.38;0.08;;;18.70;42.20;;;;;;5045078;28;20040;-48
2022/02/06 06:19:25;;;;;;;0.90;0.10;;;18.80;42.20;;;;;;5039900;28;20033;-47
2022/02/06 06:21:55;;;;;;;0.43;0.00;;;18.70;42.20;;;;;;5041028;28;20409;-48
2022/02/06 06:24:23;;;;;;;0.73;0.10;;;18.70;42.20;;;;;;5041085;28;20041;-51
2022/02/06 06:26:50;;;;;;;0.08;0.00;;;18.70;42.20;;;;;;5044446;28;20471;-53
2022/02/06 06:29:17;;;;;;;0.10;0.10;;;18.70;42.20;;;;;;5050979;28;20132;-48
2022/02/06 06:31:46;;;;;;;0.40;0.10;;;18.70;42.80;;;;;;5038397;28;20467;-51
2022/02/06 06:34:13;;;;;;;0.38;0.10;;;18.70;42.20;;;;;;5046295;28;20048;-50
2022/02/06 06:36:41;;;;;;;1.60;0.00;;;18.70;42.20;;;;;;5036453;28;20133;-49
2022/02/06 06:39:09;;;;;;;0.55;0.10;;;18.70;42.20;;;;;;5040205;28;20063;-52
2022/02/06 06:41:37;;;;;;;1.17;0.40;;;18.70;42.30;;;;;;5046587;28;20041;-50
2022/02/06 06:44:04;;;;;;;0.90;0.10;;;18.70;42.20;;;;;;5048555;28;20122;-53
2022/02/06 06:46:31;;;;;;;0.00;0.00;;;18.70;42.30;;;;;;5045753;28;20056;-53
2022/02/06 06:48:59;;;;;;;0.35;0.10;;;18.70;42.30;;;;;;5035407;28;20064;-53
2022/02/06 06:51:27;;;;;;;0.05;0.05;;;18.80;42.30;;;;;;5045604;28;20094;-48
2022/02/06 06:53:55;;;;;;;0.10;0.00;;;18.70;42.30;;;;;;5042365;28;20135;-50
2022/02/06 06:56:29;;;;;;;0.10;0.00;;;18.70;42.30;;;;;;5050199;28;20401;-50
2022/02/06 06:58:56;;;;;;;0.10;0.00;;;18.70;42.30;;;;;;5043516;28;20056;-50
2022/02/06 07:01:45;;;;;;;0.35;0.10;;;18.70;42.40;;;;;;5040347;28;20075;-52
2022/02/06 07:04:13;;;;;;;0.73;0.10;;;18.70;42.40;;;;;;5052641;28;20140;-51
2022/02/06 07:06:40;;;;;;;0.43;0.00;;;18.70;42.40;;;;;;5047013;28;20517;-48
2022/02/06 07:09:07;;;;;;;1.25;0.10;;;18.70;42.40;;;;;;5043979;28;20067;-50
2022/02/06 07:11:38;;;;;;;1.30;0.00;;;18.70;42.40;;;;;;5048359;28;20043;-50
2022/02/06 07:14:05;;;;;;;0.10;0.10;;;18.70;42.40;;;;;;5062141;28;20151;-51
2022/02/06 07:16:32;;;;;;;0.63;0.08;;;18.70;42.50;;;;;;5051824;28;20040;-48
2022/02/06 07:19:00;;;;;;;1.05;0.03;;;18.70;42.50;;;;;;5042205;28;20508;-50
2022/02/06 07:21:30;;;;;;;0.63;0.00;;;18.70;42.50;;;;;;5060286;28;20152;-52
2022/02/06 07:23:57;;;;;;;1.15;0.00;;;18.70;42.50;;;;;;5049482;28;20048;-48
2022/02/06 07:26:26;;;;;;;1.35;0.50;;;18.70;42.50;;;;;;5045772;28;20056;-51
2022/02/06 07:28:58;;;;;;;0.20;0.20;;;18.70;42.50;;;;;;5045693;28;20044;-50
2022/02/06 07:31:25;;;;;;;1.67;0.30;;;18.70;42.50;;;;;;5045100;28;20041;-51
2022/02/06 07:33:53;;;;;;;1.25;0.38;;;18.70;42.50;;;;;;5042983;28;20079;-49
2022/02/06 07:36:20;;;;;;;0.43;0.00;;;18.70;42.60;;;;;;5054528;28;20065;-52
2022/02/06 07:38:49;;;;;;;2.90;0.10;;;18.70;42.60;;;;;;5042397;28;20421;-50
2022/02/06 07:41:16;;;;;;;1.17;0.00;;;18.70;42.60;;;;;;5047887;28;20045;-52
2022/02/06 07:43:43;;;;;;;0.52;0.13;;;18.70;42.60;;;;;;5050603;28;20037;-52
2022/02/06 07:46:11;;;;;;;0.60;0.00;;;18.70;42.60;;;;;;5055628;28;20441;-47
2022/02/06 07:48:40;;;;;;;0.20;0.05;;;18.70;42.60;;;;;;5044597;28;20133;-47
2022/02/06 07:51:07;;;;;;;0.10;0.10;;;18.70;42.70;;;;;;5043922;28;20056;-48
2022/02/06 07:53:34;;;;;;;2.35;0.10;;;18.70;42.70;;;;;;5050933;28;20048;-50
2022/02/06 07:56:03;;;;;;;0.30;0.00;;;18.70;42.70;;;;;;5046218;28;20417;-50
2022/02/06 07:58:30;;;;;;;0.17;0.10;;;18.70;42.70;;;;;;5049006;28;20561;-47
2022/02/06 08:00:57;;;;;;;0.10;0.00;;;18.70;42.70;;;;;;5048720;28;20544;-51
2022/02/06 08:03:26;;;;;;;0.40;0.00;;;18.70;42.70;;;;;;5044512;28;20029;-50
2022/02/06 08:05:53;;;;;;;0.10;0.00;;;18.70;42.70;;;;;;5045954;28;20050;-50
2022/02/06 08:08:21;;;;;;;2.20;0.10;;;18.70;42.70;;;;;;5048275;28;20045;-48
2022/02/06 08:10:49;;;;;;;0.55;0.10;;;18.70;42.80;;;;;;5048631;28;20044;-47
2022/02/06 08:13:25;;;;;;;0.70;0.10;;;18.70;42.80;;;;;;5047646;28;20063;-46
2022/02/06 08:15:54;;;;;;;0.25;0.10;;;18.70;42.80;;;;;;5045623;28;20068;-52
2022/02/06 08:18:22;;;;;;;0.20;0.00;;;18.70;42.80;;;;;;5045057;28;20539;-51
2022/02/06 08:20:49;;;;;;;0.35;0.00;;;18.70;42.80;;;;;;5045780;28;20036;-47
2022/02/06 08:23:17;;;;;;;0.40;0.00;;;18.70;42.80;;;;;;5044039;28;20052;-50
2022/02/06 08:25:44;;;;;;;0.47;0.10;;;18.70;42.90;;;;;;5046253;28;20477;-48
2022/02/06 08:28:11;;;;;;;1.13;0.10;;;18.70;42.90;;;;;;5042637;28;20052;-52
2022/02/06 08:30:42;;;;;;;0.30;0.30;;;18.70;42.90;;;;;;5053027;28;20450;-48
2022/02/06 08:33:09;;;;;;;0.20;0.00;;;18.70;42.90;;;;;;5050743;28;20045;-46
2022/02/06 08:35:36;;;;;;;0.63;0.63;;;18.70;42.90;;;;;;5043992;28;20417;-52
2022/02/06 08:38:03;;;;;;;3.33;0.22;;;18.70;42.90;;;;;;5048594;28;20095;-47
2022/02/06 08:40:31;;;;;;;0.00;0.00;;;18.70;42.90;;;;;;5049150;28;20056;-50
2022/02/06 08:42:59;;;;;;;0.75;0.00;;;18.70;42.90;;;;;;5046351;28;20095;-51
2022/02/06 08:45:28;;;;;;;0.47;0.10;;;18.70;43.00;;;;;;5043519;28;20041;-46
2022/02/06 08:47:57;;;;;;;2.05;0.20;;;18.70;43.00;;;;;;5054159;28;20048;-47
2022/02/06 08:50:25;;;;;;;0.73;0.20;;;18.70;43.00;;;;;;5050933;28;20136;-47
2022/02/06 08:52:57;;;;;;;0.52;0.22;;;18.70;43.00;;;;;;5041453;28;20040;-51
2022/02/06 08:55:25;;;;;;;3.35;0.00;;;18.70;43.00;;;;;;5044381;28;20037;-52
2022/02/06 08:57:52;;;;;;;0.50;0.10;;;18.70;43.00;;;;;;5052313;28;20045;-48
2022/02/06 09:00:21;;;;;;;0.55;0.00;;;18.70;43.00;;;;;;5043066;28;20387;-48
2022/02/06 09:02:50;;;;;;;1.10;0.40;;;18.70;43.10;;;;;;5043449;28;20041;-46
2022/02/06 09:05:19;;;;;;;0.20;0.00;;;18.70;43.10;;;;;;5046185;28;20549;-49
2022/02/06 09:07:47;;;;;;;0.63;0.00;;;18.70;43.10;;;;;;5042507;28;20413;-48
2022/02/06 09:10:15;;;;;;;0.10;0.10;;;18.70;43.10;;;;;;5044524;28;20782;-52
2022/02/06 09:12:48;;;;;;;0.80;0.00;;;18.80;43.20;;;;;;5044308;28;20428;-51
2022/02/06 09:15:17;;;;;;;0.95;0.05;;;18.70;43.20;;;;;;5042087;28;20069;-51
2022/02/06 09:17:46;;;;;;;0.75;0.10;;;18.70;43.20;;;;;;5046027;28;20046;-49
2022/02/06 09:20:14;;;;;;;0.40;0.25;;;18.80;43.30;;;;;;5048905;28;20072;-46
2022/02/06 09:22:44;;;;;;;1.98;0.10;;;18.70;43.30;;;;;;5046333;28;20128;-52
2022/02/06 09:25:12;;;;;;;0.80;0.10;;;18.70;43.30;;;;;;5036780;28;20075;-52
2022/02/06 09:27:40;;;;;;;0.32;0.00;;;18.70;43.40;;;;;;5035581;28;20044;-48
2022/02/06 09:30:10;;;;;;;0.90;0.00;;;18.80;43.40;;;;;;5037792;28;20053;-51
2022/02/06 09:37:33;;;;;;;0.30;0.10;;;18.80;43.50;;;;;;5045323;28;20497;-47
2022/02/06 09:40:03;;;;;;;0.25;0.10;;;18.80;43.50;;;;;;5038926;28;20049;-51
2022/02/06 09:42:31;;;;;;;0.28;0.00;;;18.80;43.50;;;;;;5053117;28;20037;-49
2022/02/06 09:44:59;;;;;;;0.43;0.10;;;18.80;43.60;;;;;;5039246;28;20050;-50
2022/02/06 09:47:29;;;;;;;0.25;0.10;;;18.80;43.60;;;;;;5041860;28;20454;-45
2022/02/06 09:49:57;;;;;;;0.80;0.10;;;18.80;43.60;;;;;;5051721;28;20045;-54
2022/02/06 09:52:27;;;;;;;0.30;0.00;;;18.80;43.60;;;;;;5045982;28;20120;-49
2022/02/06 09:54:56;;;;;;;0.85;0.00;;;18.80;43.70;;;;;;5046223;28;20033;-48
2022/02/06 09:57:29;;;;;;;0.70;0.20;;;18.70;43.70;;;;;;5054322;28;20041;-46
2022/02/06 09:59:57;;;;;;;0.32;0.00;;;18.80;43.70;;;;;;5042813;28;20140;-50
2022/02/06 10:02:27;;;;;;;2.65;0.10;;;18.80;43.70;;;;;;5049458;28;20485;-46
2022/02/06 10:04:56;;;;;;;1.17;0.10;;;18.80;43.70;;;;;;5051304;28;20048;-46
2022/02/06 10:07:29;;;;;;;1.65;0.20;;;18.80;43.80;;;;;;5042347;28;20143;-49
2022/02/06 10:10:01;;;;;;;0.20;0.20;;;18.80;43.80;;;;;;5040197;28;20611;-50
2022/02/06 10:12:35;;;;;;;0.60;0.00;;;18.80;43.80;;;;;;5045219;28;20045;-55
2022/02/06 10:15:03;;;;;;;0.70;0.00;;;18.90;43.80;;;;;;5043487;28;20069;-48
2022/02/06 10:17:32;;;;;;;1.90;0.10;;;18.80;43.80;;;;;;5052669;28;20044;-56
2022/02/06 10:20:01;;;;;;;0.70;0.10;;;18.90;43.90;;;;;;5056560;28;20045;-46
2022/02/06 10:22:38;;;;;;;1.27;0.08;;;18.90;44.50;;;;;;5050140;28;20049;-50
2022/02/06 10:25:08;;;;;;;0.38;0.00;;;18.90;43.90;;;;;;5032880;28;20123;-49
2022/02/06 10:27:59;;;;;;;0.20;0.10;;;18.90;43.90;;;;;;5053070;28;20045;-49
2022/02/06 10:30:38;;;;;;;0.15;0.15;;;18.90;43.90;;;;;;5043586;28;20045;-49
2022/02/06 10:33:07;;;;;;;0.43;0.00;;;18.90;43.90;;;;;;5040075;28;20041;-49
2022/02/06 10:35:35;;;;;;;1.00;0.10;;;18.90;43.90;;;;;;5045340;28;20041;-53
2022/02/06 10:38:14;;;;;;;0.20;0.00;;;18.90;44.00;;;;;;5047063;28;20049;-52
2022/02/06 10:40:42;;;;;;;0.22;0.00;;;19.00;44.00;;;;;;5036213;28;20154;-49
2022/02/06 10:43:12;;;;;;;0.60;0.10;;;19.00;44.10;;;;;;5040442;28;20052;-52
2022/02/06 10:45:40;;;;;;;1.75;0.00;;;19.00;44.10;;;;;;5038599;28;20042;-51
2022/02/06 10:48:22;;;;;;;0.98;0.00;;;19.10;44.10;;;;;;5044385;28;20045;-49
2022/02/06 10:50:50;;;;;;;0.50;0.10;;;19.10;44.20;;;;;;5051599;28;20689;-47
2022/02/06 10:53:19;;;;;;;0.00;0.00;;;19.10;44.30;;;;;;5048116;28;20575;-50
2022/02/06 10:55:59;;;;;;;1.20;0.10;;;19.10;44.30;;;;;;5044336;28;20044;-52
2022/02/06 10:58:29;;;;;;;0.57;0.10;;;19.20;44.40;;;;;;5046991;28;20691;-52
2022/02/06 11:00:56;;;;;;;2.08;0.10;;;19.10;44.30;;;;;;5040706;28;20576;-48
2022/02/06 11:03:30;;;;;;;3.42;0.10;;;19.10;45.00;;;;;;5041754;28;20532;-49
2022/02/06 11:06:07;;;;;;;1.80;0.10;;;19.20;44.40;;;;;;5046266;28;20052;-49
2022/02/06 11:08:35;;;;;;;0.75;0.05;;;19.20;44.50;;;;;;5048229;28;20144;-51
2022/02/06 11:11:04;;;;;;;0.55;0.55;;;19.20;44.50;;;;;;5051956;28;20043;-51
2022/02/06 11:13:33;;;;;;;0.55;0.20;;;19.20;44.50;;;;;;5040708;28;20037;-48
2022/02/06 11:16:07;;;;;;;0.88;0.10;;;19.30;44.60;;;;;;5046834;28;20582;-51
2022/02/06 11:18:39;;;;;;;2.95;0.00;;;19.30;44.60;;;;;;5044999;28;20037;-46
2022/02/06 11:21:08;;;;;;;1.33;0.10;;;19.30;44.60;;;;;;5055482;28;20040;-52
2022/02/06 11:23:47;;;;;;;1.45;0.08;;;19.30;44.60;;;;;;5044787;28;20053;-50
2022/02/06 11:26:17;;;;;;;0.35;0.10;;;19.40;44.60;;;;;;5042989;28;20045;-49
2022/02/06 11:28:47;;;;;;;1.45;0.00;;;19.40;44.60;;;;;;5044574;28;20049;-50
2022/02/06 11:31:16;;;;;;;0.28;0.08;;;19.50;44.60;;;;;;5039275;28;20148;-49
2022/02/06 11:33:43;;;;;;;1.45;0.10;;;19.50;44.50;;;;;;5047961;28;20162;-51
2022/02/06 11:36:16;;;;;;;0.60;0.10;;;19.50;44.40;;;;;;5057957;28;20041;-51
2022/02/06 11:45:01;;;;;;;1.52;0.32;;;19.60;44.30;;;;;;5044241;28;20048;-52
2022/02/06 11:47:34;;;;;;;0.75;0.10;;;19.60;44.30;;;;;;5046317;28;20061;-51
2022/02/06 11:50:09;;;;;;;0.20;0.00;;;19.50;44.30;;;;;;5042887;28;20055;-50
2022/02/06 11:52:50;;;;;;;1.00;0.10;;;19.50;44.30;;;;;;5042180;28;20460;-48
2022/02/06 11:55:39;;;;;;;0.10;0.00;;;19.60;44.40;;;;;;5043201;28;20049;-52
2022/02/06 11:58:27;;;;;;;0.57;0.17;;;19.50;44.30;;;;;;5041005;28;20084;-52
2022/02/06 12:01:26;;;;;;;1.00;0.10;;;19.50;44.30;;;;;;5032593;28;20045;-51
2022/02/06 12:03:56;;;;;;;0.30;0.00;;;19.50;44.30;;;;;;5041124;28;20125;-53
2022/02/06 12:06:25;;;;;;;0.25;0.10;;;19.50;44.40;;;;;;5049451;28;20049;-53
2022/02/06 12:09:16;;;;;;;0.90;0.52;;;19.50;44.40;;;;;;5044775;28;20049;-51
2022/02/06 12:12:13;;;;;;;0.05;0.00;;;19.50;44.40;;;;;;5044558;28;20049;-47
2022/02/06 12:14:46;;;;;;;1.50;0.00;;;19.50;44.40;;;;;;5044059;28;20126;-49
2022/02/06 12:17:20;;;;;;;0.65;0.05;;;19.50;44.50;;;;;;5061149;28;20040;-50
2022/02/06 12:20:09;;;;;;;0.63;0.10;;;19.50;44.50;;;;;;5056784;28;20036;-52
2022/02/06 12:22:40;;;;;;;0.75;0.50;;;19.60;44.40;;;;;;5039606;28;20527;-51
2022/02/06 12:25:30;;;;;;;0.20;0.00;;;19.50;44.40;;;;;;5048064;28;20493;-47
2022/02/06 12:28:28;;;;;;;0.00;0.00;;;19.60;44.40;;;;;;5054179;28;20073;-52
2022/02/06 12:30:57;;;;;;;0.10;0.10;;;19.60;44.30;;;;;;5033128;28;20049;-47
2022/02/06 12:33:31;;;;;;;1.65;0.00;;;19.60;44.40;;;;;;5048013;28;20041;-52
2022/02/06 12:38:44;;;;;;;0.70;0.10;;;19.80;44.30;;;;;;5050162;28;20572;-51
2022/02/06 12:41:18;;;;;;;0.20;0.10;;;19.80;44.20;;;;;;5048443;28;20045;-54
2022/02/06 12:43:51;;;;;;;1.40;0.10;;;19.90;44.50;;;;;;5047639;28;20516;-46
2022/02/06 12:46:19;;;;;;;0.22;0.00;;;19.90;44.70;;;;;;5043107;28;20502;-51
2022/02/06 12:48:48;;;;;;;0.98;0.20;;;19.90;44.00;;;;;;5042319;28;20130;-51
2022/02/06 12:51:15;;;;;;;0.20;0.10;;;19.90;44.00;;;;;;5051421;28;20060;-53
2022/02/06 12:53:43;;;;;;;0.35;0.10;;;19.90;44.00;;;;;;5045576;28;20040;-52
2022/02/06 12:56:28;;;;;;;0.20;0.10;;;19.90;44.00;;;;;;5048265;28;20336;-52
2022/02/06 12:58:56;;;;;;;0.00;0.00;;;19.90;44.00;;;;;;5043614;28;20053;-52
2022/02/06 13:01:34;;;;;;;0.10;0.10;;;19.90;44.00;;;;;;5038982;28;20170;-47
2022/02/06 13:04:02;;;;;;;0.63;0.00;;;19.90;44.00;;;;;;5044070;28;20041;-50
2022/02/06 13:06:35;;;;;;;0.32;0.00;;;19.90;44.00;;;;;;5041355;28;20044;-51
2022/02/06 13:09:06;;;;;;;0.10;0.10;;;19.90;44.10;;;;;;5039756;28;20056;-51
2022/02/06 13:11:43;;;;;;;0.00;0.00;;;19.80;44.10;;;;;;5058812;28;20059;-53
2022/02/06 13:14:18;;;;;;;0.10;0.05;;;19.90;44.10;;;;;;5045659;28;20122;-53
2022/02/06 13:16:52;;;;;;;1.20;0.40;;;19.80;44.10;;;;;;5048796;28;20041;-51
2022/02/06 13:19:36;;;;;;;0.10;0.00;;;19.80;44.10;;;;;;5039467;28;20033;-52
2022/02/06 13:22:17;;;;;;;0.10;0.10;;;19.90;44.20;;;;;;5044335;28;20106;-47
2022/02/06 13:27:55;;;;;;;0.10;0.10;;;19.80;44.20;;;;;;5044607;28;20040;-50
2022/02/06 13:30:44;;;;;;;0.25;0.00;;;19.80;44.30;;;;;;5039547;28;20068;-52
2022/02/06 13:33:30;;;;;;;0.43;0.00;;;19.80;44.30;;;;;;5044880;28;20045;-52
2022/02/06 13:36:12;;;;;;;1.30;0.10;;;19.80;44.40;;;;;;5040077;28;20123;-53
2022/02/06 13:38:39;;;;;;;0.88;0.10;;;19.80;44.40;;;;;;5047405;28;20399;-51
2022/02/06 13:41:13;;;;;;;0.28;0.00;;;19.80;44.50;;;;;;5050668;28;20045;-52
2022/02/06 13:43:41;;;;;;;0.43;0.00;;;19.80;44.50;;;;;;5048402;28;20037;-53
2022/02/06 13:46:16;;;;;;;0.25;0.00;;;19.80;44.50;;;;;;5048137;28;20048;-53
2022/02/06 13:48:46;;;;;;;0.30;0.00;;;19.80;44.50;;;;;;5057727;28;20071;-49
2022/02/06 13:51:16;;;;;;;0.05;0.03;;;19.80;44.60;;;;;;5041956;28;20245;-53
2022/02/06 13:53:54;;;;;;;1.55;0.00;;;19.80;44.60;;;;;;5046376;28;20037;-53
2022/02/06 13:56:21;;;;;;;0.73;0.03;;;19.80;44.60;;;;;;5045965;28;20048;-49
2022/02/06 13:59:00;;;;;;;0.10;0.10;;;19.80;44.60;;;;;;5050049;28;20045;-51
2022/02/06 14:01:39;;;;;;;0.30;0.10;;;19.80;44.70;;;;;;5041231;28;20498;-51
2022/02/06 14:04:07;;;;;;;0.08;0.00;;;19.80;44.70;;;;;;5056776;28;20064;-52
2022/02/06 14:06:40;;;;;;;1.17;0.55;;;19.80;44.70;;;;;;5049203;28;20051;-51
2022/02/06 14:09:15;;;;;;;0.10;0.10;;;19.80;44.70;;;;;;5046538;28;20052;-52
2022/02/06 14:11:59;;;;;;;0.10;0.10;;;19.80;44.70;;;;;;5038726;28;20049;-52
2022/02/06 14:14:28;;;;;;;0.63;0.10;;;19.80;44.70;;;;;;5040188;28;20049;-50
2022/02/06 14:16:57;;;;;;;0.40;0.40;;;19.80;44.70;;;;;;5046293;28;20103;-51
2022/02/06 14:19:33;;;;;;;0.15;0.10;;;19.80;44.70;;;;;;5049064;28;20394;-53
2022/02/06 14:22:02;;;;;;;0.22;0.10;;;19.80;44.70;;;;;;5038504;28;20044;-51
2022/02/06 14:24:30;;;;;;;0.45;0.00;;;19.80;44.70;;;;;;5048420;28;20056;-50
2022/02/06 14:27:03;;;;;;;0.00;0.00;;;19.80;44.80;;;;;;5039108;28;20120;-52
2022/02/06 14:29:31;;;;;;;0.30;0.15;;;19.80;44.80;;;;;;5053696;28;20074;-54
2022/02/06 14:32:12;;;;;;;0.10;0.00;;;19.80;44.80;;;;;;5044925;28;20041;-48
2022/02/06 14:34:40;;;;;;;0.10;0.00;;;19.90;44.80;;;;;;5046633;28;20691;-51
2022/02/06 14:37:12;;;;;;;0.50;0.00;;;19.90;44.80;;;;;;5052590;28;20111;-50
2022/02/06 14:40:00;;;;;;;0.10;0.00;;;19.90;44.80;;;;;;5037797;28;20523;-49
2022/02/06 14:42:29;;;;;;;0.00;0.00;;;19.90;44.80;;;;;;5039961;28;20044;-50
2022/02/06 14:45:08;;;;;;;0.35;0.00;;;19.80;44.80;;;;;;5043380;28;20108;-48
2022/02/06 14:47:36;;;;;;;0.00;0.00;;;19.90;44.90;;;;;;5048164;28;20045;-52
2022/02/06 14:50:11;;;;;;;0.03;0.00;;;19.80;44.90;;;;;;5050814;28;20053;-52
2022/02/06 14:52:40;;;;;;;0.65;0.00;;;19.90;45.00;;;;;;5046255;28;20048;-51